Aeroporto :
LOGIN :

Iscrizione | Disclaimer

   EN    FR    IT 

 










Sommario :    VFR   VFR Marginale   IFR   IFR Intensivo   IFR Molto Intensivo
Visibilità : 
Base nubi : 
>= 8 km
>= 3000ft
5 / 8 km
1000 / 3000 ft
1500m / 5 km
500 / 1000 ft
800 / 1500m
200 / 500 ft
< 800m
< 200 ft
Simboli :   Temporali  Nebbia  Neve Forte  Precipitazioni Forti  Vento > 20 kt
SIGMETs :   Varie  Temporali  Ghiacco  Turbolenza  Onda orograficha  Ceneri Vulcaniche






- Altitudine del aeroporto : 645 ft
- Codice IATA : DLE


LFGJ - Dole Tavaux

ULTIMO METAR :
  • 210400Z AUTO 16007KT 9999 ///TCU 13/13 Q1014

METARs OBSOLETI :
  • 210330Z AUTO 17006KT CAVOK 13/13 Q1014
  • 210300Z AUTO 16007KT 9999 ///TCU 13/13 Q1014
  • 210230Z AUTO 17005KT CAVOK 13/13 Q1014
  • 210200Z AUTO 16004KT 9999 -RA ///TCU 14/13 Q1013
  • 210130Z AUTO 18005KT 9999 FEW024/// OVC066/// ///TCU 14/13 Q1013

Previsioni scadute.



MetMap, La meteo Aeronautica in un colpo d'occhio ! - Copyright ORBIFLY Dicembre 2007 - Disclaimer

ORBIFLY MET'MAP TEAM :

Programmazione e sviluppo : Alexandra Zaïnal
Concezione e sviluppo : Baudouin d'Aumeries
Co-Programmazione e sviluppo : Marc-Olivier Méhu
Supporto tecnico e logistico : Manuel Goepfert
Aiuto per la traduzione : Arnaldo La Scala

Contatto : metmap@orbifly.com




FONTI E CREDITI :

   NOAA